Time;durP1;ratioP1;P1;durP2;ratioP2;P2;SDS_P1;SDS_P2;PMS_P1;PMS_P2;Temp;Humidity;BMP_temperature;BMP_pressure;BME280_temperature;BME280_humidity;BME280_pressure;Samples;Min_cycle;Max_cycle;Signal;HPM_P1;HPM_P2
2021/03/19 00:02:21;;;;;;;11.48;6.43;;;1.30;92.30;;;;;;5006509;28;20046;-52
2021/03/19 00:04:47;;;;;;;15.80;8.07;;;1.30;92.30;;;;;;5005091;28;20057;-51
2021/03/19 00:07:13;;;;;;;12.30;7.10;;;1.30;92.60;;;;;;5003348;28;20061;-49
2021/03/19 00:09:39;;;;;;;12.50;7.03;;;1.30;92.50;;;;;;5006001;28;20072;-50
2021/03/19 00:12:05;;;;;;;13.70;7.53;;;1.30;92.60;;;;;;5005997;28;20050;-51
2021/03/19 00:14:31;;;;;;;12.65;6.75;;;1.30;92.70;;;;;;4986386;28;20064;-50
2021/03/19 00:16:57;;;;;;;19.52;8.02;;;1.30;92.40;;;;;;5010637;28;20411;-50
2021/03/19 00:19:23;;;;;;;11.45;7.90;;;1.20;92.60;;;;;;5010829;28;20053;-50
2021/03/19 00:21:48;;;;;;;12.65;7.20;;;1.20;92.60;;;;;;5013125;28;20083;-51
2021/03/19 00:24:14;;;;;;;15.00;8.13;;;1.20;92.60;;;;;;5011988;28;21102;-50
2021/03/19 00:26:41;;;;;;;12.98;6.35;;;1.10;92.60;;;;;;5012813;28;20124;-50
2021/03/19 00:29:07;;;;;;;13.38;7.15;;;1.10;92.50;;;;;;5010541;28;20052;-51
2021/03/19 00:31:36;;;;;;;13.25;7.30;;;1.10;92.40;;;;;;5012701;28;20050;-49
2021/03/19 00:34:05;;;;;;;13.05;6.53;;;1.10;92.50;;;;;;5012277;28;20042;-49
2021/03/19 00:36:31;;;;;;;12.05;7.90;;;1.10;92.60;;;;;;5012798;28;20081;-49
2021/03/19 00:38:56;;;;;;;12.00;6.75;;;1.00;92.60;;;;;;5005654;28;20045;-50
2021/03/19 00:41:22;;;;;;;15.80;8.05;;;1.00;92.80;;;;;;5012994;28;20124;-51
2021/03/19 00:43:48;;;;;;;17.15;7.20;;;1.00;92.70;;;;;;5012531;28;20388;-49
2021/03/19 00:46:14;;;;;;;14.25;7.07;;;0.90;92.50;;;;;;5011982;28;20538;-48
2021/03/19 00:48:40;;;;;;;14.07;7.20;;;0.90;92.60;;;;;;5012351;28;20063;-52
2021/03/19 00:51:06;;;;;;;14.38;6.93;;;0.90;92.70;;;;;;5012711;28;20111;-49
2021/03/19 00:53:35;;;;;;;11.98;7.97;;;0.90;92.70;;;;;;5011833;28;20049;-49
2021/03/19 00:56:00;;;;;;;15.07;7.57;;;0.90;92.60;;;;;;5012025;28;20084;-49
2021/03/19 00:58:26;;;;;;;12.57;6.88;;;0.90;92.70;;;;;;5012592;28;20766;-51
2021/03/19 01:00:52;;;;;;;14.02;7.18;;;0.80;92.70;;;;;;5011084;28;20474;-52
2021/03/19 01:03:18;;;;;;;14.77;7.75;;;0.80;92.70;;;;;;4993833;28;20048;-48
2021/03/19 01:05:46;;;;;;;16.02;7.95;;;0.80;92.90;;;;;;5011805;28;20140;-49
2021/03/19 01:08:13;;;;;;;18.73;8.35;;;0.80;92.80;;;;;;5012498;28;20051;-50
2021/03/19 01:10:55;;;;;;;15.20;7.53;;;0.80;92.70;;;;;;5011315;28;20050;-48
2021/03/19 01:13:23;;;;;;;11.35;6.55;;;0.80;92.90;;;;;;5011826;28;20045;-49
2021/03/19 01:15:49;;;;;;;16.58;7.63;;;0.70;92.90;;;;;;5012457;28;20057;-48
2021/03/19 01:18:17;;;;;;;12.15;6.85;;;0.70;92.70;;;;;;5011771;28;20049;-49
2021/03/19 01:20:47;;;;;;;16.73;6.95;;;0.70;92.90;;;;;;5010018;28;20041;-50
2021/03/19 01:23:14;;;;;;;12.80;7.57;;;0.70;92.90;;;;;;5010786;28;20053;-48
2021/03/19 01:25:41;;;;;;;14.02;7.57;;;0.60;92.80;;;;;;5016008;28;20096;-48
2021/03/19 01:28:09;;;;;;;14.73;6.95;;;0.60;92.80;;;;;;5008859;28;20054;-49
2021/03/19 01:30:38;;;;;;;13.98;7.10;;;0.60;93.10;;;;;;5008851;28;20054;-49
2021/03/19 01:33:05;;;;;;;16.77;6.57;;;0.60;93.00;;;;;;5007681;28;20046;-48
2021/03/19 01:35:33;;;;;;;16.02;6.70;;;0.60;93.00;;;;;;5007831;28;20069;-49
2021/03/19 01:38:00;;;;;;;14.88;7.68;;;0.60;93.10;;;;;;5010142;28;20077;-47
2021/03/19 01:40:31;;;;;;;18.73;7.47;;;0.60;93.20;;;;;;5010283;28;20082;-50
2021/03/19 01:43:04;;;;;;;12.50;6.93;;;0.50;93.10;;;;;;5007353;28;20133;-48
2021/03/19 01:46:04;;;;;;;14.30;6.25;;;0.50;93.20;;;;;;5005662;28;20061;-49
2021/03/19 01:49:07;;;;;;;16.45;6.43;;;0.60;93.20;;;;;;5008449;28;20869;-51
2021/03/19 01:52:11;;;;;;;13.60;6.78;;;0.60;93.20;;;;;;5007796;28;20061;-50
2021/03/19 01:55:15;;;;;;;14.60;7.18;;;0.60;93.40;;;;;;5009678;28;20048;-48
2021/03/19 01:58:18;;;;;;;15.38;7.35;;;0.60;93.50;;;;;;5008210;28;20054;-49
2021/03/19 02:01:21;;;;;;;15.50;6.03;;;0.60;93.40;;;;;;5007529;28;20391;-49
2021/03/19 02:04:25;;;;;;;13.27;5.97;;;0.60;93.40;;;;;;5005442;28;20048;-51
2021/03/19 02:07:28;;;;;;;14.48;6.10;;;0.50;93.30;;;;;;5005366;28;20485;-50
2021/03/19 02:10:34;;;;;;;22.02;7.63;;;0.50;93.30;;;;;;5008921;28;20045;-47
2021/03/19 02:13:38;;;;;;;20.02;7.38;;;0.50;93.40;;;;;;5006132;28;20070;-49
2021/03/19 02:16:42;;;;;;;16.67;6.68;;;0.50;93.40;;;;;;5006562;28;20077;-48
2021/03/19 02:19:45;;;;;;;14.18;7.00;;;0.50;93.50;;;;;;5006948;28;20096;-49
2021/03/19 02:22:49;;;;;;;13.60;6.88;;;0.50;93.60;;;;;;5003248;28;20112;-49
2021/03/19 02:25:52;;;;;;;16.73;7.90;;;0.40;93.50;;;;;;5004173;28;20462;-49
2021/03/19 02:28:56;;;;;;;13.25;7.13;;;0.40;93.60;;;;;;5007663;28;20042;-50
2021/03/19 02:31:41;;;;;;;23.08;8.40;;;0.40;93.70;;;;;;5007159;28;20572;-49
2021/03/19 02:34:07;;;;;;;17.90;8.45;;;0.40;93.70;;;;;;5006987;28;20050;-50
2021/03/19 02:36:34;;;;;;;19.92;8.75;;;0.30;93.70;;;;;;5005947;28;20415;-49
2021/03/19 02:39:02;;;;;;;21.92;8.95;;;0.40;93.70;;;;;;5007231;28;20056;-47
2021/03/19 02:41:28;;;;;;;16.08;7.45;;;0.30;93.60;;;;;;5007000;28;20520;-49
2021/03/19 02:43:54;;;;;;;18.77;8.35;;;0.30;93.50;;;;;;5006814;28;20054;-49
2021/03/19 02:46:20;;;;;;;20.77;9.55;;;0.30;93.40;;;;;;5006233;28;20084;-49
2021/03/19 02:48:46;;;;;;;22.35;9.50;;;0.30;93.50;;;;;;5007032;28;20050;-48
2021/03/19 02:51:11;;;;;;;20.05;8.90;;;0.30;93.70;;;;;;5006869;28;20112;-49
2021/03/19 02:53:37;;;;;;;15.88;9.40;;;0.30;93.60;;;;;;5006517;28;20092;-51
2021/03/19 02:56:06;;;;;;;19.42;10.40;;;0.30;93.70;;;;;;5005869;28;20057;-53
2021/03/19 02:58:32;;;;;;;27.10;10.32;;;0.30;93.60;;;;;;5005870;28;20050;-49
2021/03/19 03:01:00;;;;;;;28.17;11.45;;;0.30;93.80;;;;;;5006492;28;20069;-49
2021/03/19 03:03:26;;;;;;;23.75;9.82;;;0.30;93.80;;;;;;5004874;28;20513;-49
2021/03/19 03:05:52;;;;;;;21.63;11.93;;;0.30;93.70;;;;;;5005468;28;20046;-47
2021/03/19 03:08:20;;;;;;;28.60;11.15;;;0.40;94.00;;;;;;5005997;28;20137;-48
2021/03/19 03:10:48;;;;;;;21.83;11.55;;;0.40;93.90;;;;;;5006849;28;20045;-48
2021/03/19 03:13:14;;;;;;;21.67;11.90;;;0.40;93.90;;;;;;5005786;28;20050;-47
2021/03/19 03:15:41;;;;;;;19.20;11.20;;;0.40;93.90;;;;;;5006219;28;20050;-47
2021/03/19 03:18:09;;;;;;;20.20;11.27;;;0.40;93.90;;;;;;5007910;28;20116;-48
2021/03/19 03:20:38;;;;;;;20.70;11.88;;;0.30;94.00;;;;;;5005943;28;20124;-49
2021/03/19 03:23:05;;;;;;;24.58;11.68;;;0.30;93.90;;;;;;5006103;28;20057;-48
2021/03/19 03:25:32;;;;;;;18.48;9.57;;;0.40;94.10;;;;;;5005839;28;20042;-48
2021/03/19 03:27:59;;;;;;;22.08;11.18;;;0.30;94.10;;;;;;5004841;28;20058;-47
2021/03/19 03:30:31;;;;;;;22.85;10.77;;;0.30;94.00;;;;;;5006631;28;20105;-47
2021/03/19 03:32:58;;;;;;;25.73;11.07;;;0.30;94.10;;;;;;5006399;28;20057;-48
2021/03/19 03:35:25;;;;;;;26.55;11.50;;;0.30;94.00;;;;;;5006327;28;20099;-48
2021/03/19 03:37:53;;;;;;;22.77;10.77;;;0.30;94.00;;;;;;5006147;28;20062;-51
2021/03/19 03:40:28;;;;;;;25.80;11.80;;;0.30;94.10;;;;;;5006543;28;20054;-51
2021/03/19 03:42:55;;;;;;;23.65;11.95;;;0.30;94.00;;;;;;5006479;28;20045;-48
2021/03/19 03:45:21;;;;;;;30.70;13.25;;;0.30;94.00;;;;;;5006778;28;20053;-50
2021/03/19 03:47:48;;;;;;;29.75;13.13;;;0.30;94.10;;;;;;5005768;28;20049;-47
2021/03/19 03:50:17;;;;;;;31.00;13.00;;;0.30;94.10;;;;;;5003719;28;20411;-46
2021/03/19 03:52:47;;;;;;;25.08;11.88;;;0.30;94.20;;;;;;4985370;28;20115;-47
2021/03/19 03:55:13;;;;;;;22.17;10.98;;;0.30;94.10;;;;;;5003357;28;20106;-49
2021/03/19 03:57:40;;;;;;;26.55;11.70;;;0.30;94.10;;;;;;5005276;28;20112;-50
2021/03/19 04:00:09;;;;;;;30.63;14.02;;;0.30;94.20;;;;;;5006050;28;20869;-51
2021/03/19 04:02:36;;;;;;;21.73;11.85;;;0.30;94.10;;;;;;5005278;28;20063;-48
2021/03/19 04:05:06;;;;;;;27.08;11.35;;;0.30;94.10;;;;;;5006077;28;20045;-49
2021/03/19 04:07:35;;;;;;;22.60;12.10;;;0.30;94.20;;;;;;5005034;28;20954;-49
2021/03/19 04:10:03;;;;;;;23.15;11.25;;;0.20;94.20;;;;;;5005622;28;20061;-49
2021/03/19 04:12:32;;;;;;;20.55;11.63;;;0.20;94.20;;;;;;5006109;28;20076;-49
2021/03/19 04:14:58;;;;;;;25.00;11.55;;;0.10;94.10;;;;;;5005575;28;20046;-49
2021/03/19 04:17:33;;;;;;;27.45;12.50;;;0.10;94.10;;;;;;5004605;28;20080;-47
2021/03/19 04:20:00;;;;;;;20.95;11.32;;;0.10;94.20;;;;;;5006119;28;20054;-48
2021/03/19 04:22:27;;;;;;;22.60;10.27;;;0.10;94.30;;;;;;5002423;28;20108;-49
2021/03/19 04:24:55;;;;;;;21.23;10.60;;;0.00;94.30;;;;;;5005868;28;20053;-49
2021/03/19 04:27:25;;;;;;;25.55;12.18;;;0.00;94.30;;;;;;5005714;28;20306;-48
2021/03/19 04:29:53;;;;;;;18.40;10.95;;;0.00;94.30;;;;;;5005762;28;20057;-49
2021/03/19 04:32:20;;;;;;;23.80;12.77;;;-0.10;94.30;;;;;;5004983;28;20080;-49
2021/03/19 04:34:47;;;;;;;24.40;12.60;;;-0.10;94.40;;;;;;5005610;28;20104;-49
2021/03/19 04:37:13;;;;;;;30.85;12.07;;;-0.10;94.40;;;;;;5006109;28;20578;-50
2021/03/19 04:39:42;;;;;;;20.88;9.73;;;-0.10;94.30;;;;;;5005465;28;20049;-49
2021/03/19 04:42:11;;;;;;;23.92;11.27;;;-0.10;94.50;;;;;;5004877;28;20112;-50
2021/03/19 04:44:42;;;;;;;21.83;10.80;;;-0.10;94.40;;;;;;5005375;28;20050;-50
2021/03/19 04:47:09;;;;;;;22.90;10.55;;;-0.10;94.40;;;;;;5006019;28;20113;-47
2021/03/19 04:49:39;;;;;;;21.33;10.80;;;-0.10;94.30;;;;;;4996957;28;20906;-47
2021/03/19 04:52:06;;;;;;;23.30;11.20;;;-0.20;94.30;;;;;;5003063;28;20053;-48
2021/03/19 04:54:32;;;;;;;30.33;10.88;;;-0.20;94.30;;;;;;5005553;28;20058;-49
2021/03/19 04:56:59;;;;;;;22.20;9.88;;;-0.20;94.30;;;;;;5005463;28;20050;-47
2021/03/19 04:59:26;;;;;;;19.45;10.02;;;-0.30;94.30;;;;;;5004940;28;20086;-52
2021/03/19 05:01:55;;;;;;;24.48;10.90;;;-0.30;94.30;;;;;;5005723;28;20135;-47
2021/03/19 05:04:23;;;;;;;21.25;11.60;;;-0.30;94.20;;;;;;5007869;28;20119;-50
2021/03/19 05:06:51;;;;;;;17.88;10.23;;;-0.30;94.30;;;;;;5009115;28;20058;-49
2021/03/19 05:09:20;;;;;;;22.25;11.23;;;-0.30;94.30;;;;;;5008518;28;20050;-49
2021/03/19 05:11:48;;;;;;;25.83;11.20;;;-0.40;94.20;;;;;;5009021;28;20104;-48
2021/03/19 05:14:17;;;;;;;17.27;10.57;;;-0.40;94.30;;;;;;5009304;28;20611;-51
2021/03/19 05:16:43;;;;;;;24.10;10.57;;;-0.40;94.20;;;;;;5008206;28;20129;-48
2021/03/19 05:19:09;;;;;;;21.90;10.10;;;-0.40;94.30;;;;;;5008559;28;20053;-49
2021/03/19 05:21:39;;;;;;;25.52;10.82;;;-0.40;94.30;;;;;;5008772;28;20462;-52
2021/03/19 05:24:08;;;;;;;19.58;10.20;;;-0.40;94.30;;;;;;5005958;28;20057;-49
2021/03/19 05:26:37;;;;;;;25.13;12.38;;;-0.40;94.30;;;;;;5001734;28;20112;-49
2021/03/19 05:29:03;;;;;;;16.48;10.20;;;-0.50;94.20;;;;;;5008736;28;20140;-49
2021/03/19 05:31:29;;;;;;;19.30;11.60;;;-0.50;94.30;;;;;;5008685;28;20107;-49
2021/03/19 05:33:56;;;;;;;23.17;10.00;;;-0.50;94.40;;;;;;5008716;28;20054;-48
2021/03/19 05:36:28;;;;;;;19.27;10.25;;;-0.50;94.40;;;;;;5008131;28;20076;-51
2021/03/19 05:38:55;;;;;;;23.98;10.05;;;-0.50;94.30;;;;;;5006054;28;20045;-50
2021/03/19 05:41:28;;;;;;;24.65;10.15;;;-0.60;94.30;;;;;;5009196;28;20073;-48
2021/03/19 05:44:16;;;;;;;23.70;9.80;;;-0.60;94.30;;;;;;5005633;28;20096;-50
2021/03/19 05:46:46;;;;;;;19.98;10.93;;;-0.60;94.30;;;;;;5008344;28;20089;-50
2021/03/19 05:49:21;;;;;;;22.80;11.02;;;-0.60;94.30;;;;;;5007740;28;20049;-49
2021/03/19 05:51:52;;;;;;;18.42;9.77;;;-0.60;94.30;;;;;;5008260;28;20507;-50
2021/03/19 05:54:29;;;;;;;17.38;9.68;;;-0.60;94.30;;;;;;5008373;28;20498;-47
2021/03/19 05:57:08;;;;;;;21.60;9.65;;;-0.60;94.40;;;;;;5008436;28;20376;-50
2021/03/19 05:59:37;;;;;;;18.73;10.45;;;-0.60;94.40;;;;;;5006416;28;20054;-50
2021/03/19 06:02:17;;;;;;;23.45;11.60;;;-0.60;94.30;;;;;;5007835;28;20108;-48
2021/03/19 06:04:44;;;;;;;20.05;9.75;;;-0.60;94.40;;;;;;5007582;28;20057;-48
2021/03/19 06:07:11;;;;;;;23.20;9.65;;;-0.60;94.40;;;;;;5005906;28;20461;-50
2021/03/19 06:09:41;;;;;;;21.05;10.55;;;-0.60;94.40;;;;;;5004964;28;20510;-50
2021/03/19 06:12:18;;;;;;;18.50;8.88;;;-0.50;94.40;;;;;;5008199;28;20049;-47
2021/03/19 06:14:47;;;;;;;17.50;10.73;;;-0.50;94.30;;;;;;4998567;28;20089;-41
2021/03/19 06:17:53;;;;;;;22.95;10.82;;;-0.40;94.90;;;;;;5007230;28;20111;-41
2021/03/19 06:20:22;;;;;;;17.80;10.63;;;-0.30;94.80;;;;;;5002507;28;20140;-44
2021/03/19 06:22:54;;;;;;;24.77;12.10;;;-0.30;94.90;;;;;;5005174;28;20108;-42
2021/03/19 06:25:23;;;;;;;;;;;-0.30;94.90;;;;;;5006681;28;20462;-43
2021/03/19 06:28:27;;;;;;;22.85;12.18;;;-0.20;95.00;;;;;;4991075;28;20302;-42
2021/03/19 06:31:24;;;;;;;24.05;11.07;;;-0.10;94.90;;;;;;4989613;28;20053;-41
2021/03/19 06:34:18;;;;;;;26.90;13.30;;;0.00;94.90;;;;;;5004395;28;20050;-41
2021/03/19 06:37:23;;;;;;;25.45;13.55;;;0.00;94.90;;;;;;5006069;28;20053;-42
2021/03/19 06:40:40;;;;;;;24.23;12.35;;;0.10;95.00;;;;;;4922604;29;20393;-43
2021/03/19 06:43:28;;;;;;;29.48;14.45;;;0.20;95.00;;;;;;4920948;29;20340;-41
2021/03/19 06:46:42;;;;;;;19.85;13.07;;;0.30;95.00;;;;;;4922927;29;20055;-41
2021/03/19 06:49:44;;;;;;;31.27;16.02;;;0.40;95.10;;;;;;4910134;29;20560;-45
2021/03/19 06:52:31;;;;;;;34.45;19.60;;;0.50;95.20;;;;;;4911024;29;20107;-41
2021/03/19 06:55:40;;;;;;;30.63;17.17;;;0.70;95.50;;;;;;4912512;29;20285;-42
2021/03/19 06:58:40;;;;;;;29.63;16.58;;;0.90;95.60;;;;;;4910222;29;20590;-43
2021/03/19 07:01:32;;;;;;;28.48;16.73;;;1.10;95.50;;;;;;4911700;29;20055;-42
2021/03/19 07:04:33;;;;;;;24.30;13.57;;;1.40;95.60;;;;;;4912129;29;20756;-43
2021/03/19 07:07:40;;;;;;;17.08;10.68;;;1.80;95.60;;;;;;4911386;29;20070;-42
2021/03/19 07:10:51;;;;;;;17.00;10.13;;;2.30;95.40;;;;;;4908166;29;20047;-43
2021/03/19 07:13:58;;;;;;;17.40;8.43;;;2.70;95.10;;;;;;4925192;29;20081;-43
2021/03/19 07:16:58;;;;;;;19.02;6.72;;;3.30;94.30;;;;;;4949389;28;20082;-43
2021/03/19 07:19:30;;;;;;;13.60;7.15;;;3.70;93.00;;;;;;4964504;28;20050;-46
2021/03/19 07:22:18;;;;;;;13.27;6.35;;;4.10;92.70;;;;;;4963746;28;20070;-45
2021/03/19 07:25:41;;;;;;;12.50;6.05;;;4.50;92.20;;;;;;4953840;28;20065;-46
2021/03/19 07:28:36;;;;;;;15.90;6.88;;;4.90;90.90;;;;;;4996182;28;20054;-45
2021/03/19 07:31:17;;;;;;;15.05;6.00;;;5.40;90.80;;;;;;5002951;28;20377;-45
2021/03/19 07:34:16;;;;;;;10.25;5.40;;;5.80;90.50;;;;;;5004217;28;20069;-45
2021/03/19 08:41:17;;;;;;;11.18;6.72;;;11.40;60.60;;;;;;5006767;28;20065;-61
2021/03/19 08:44:09;;;;;;;12.23;7.68;;;11.50;58.70;;;;;;5008566;28;20498;-63
2021/03/19 08:47:28;;;;;;;8.82;5.05;;;11.70;58.40;;;;;;4994331;28;20046;-61
2021/03/19 08:50:20;;;;;;;8.13;4.93;;;11.70;55.70;;;;;;4994976;28;20724;-61
2021/03/19 08:53:15;;;;;;;;;;;11.70;56.20;;;;;;4987390;28;20734;-61
2021/03/19 08:56:03;;;;;;;5.97;3.17;;;11.50;54.10;;;;;;4987772;28;19932;-61
2021/03/19 08:58:53;;;;;;;6.65;3.83;;;12.00;58.50;;;;;;4994458;28;20387;-58
2021/03/19 09:01:57;;;;;;;44.88;36.22;;;12.40;54.70;;;;;;4995055;28;20061;-53
2021/03/19 09:04:55;;;;;;;13.77;9.07;;;12.70;51.00;;;;;;4990967;28;20057;-51
2021/03/19 09:07:37;;;;;;;17.73;12.85;;;12.60;51.00;;;;;;5001867;28;20074;-50
2021/03/19 09:10:26;;;;;;;14.45;10.38;;;12.40;51.20;;;;;;4995350;28;20052;-50
2021/03/19 09:13:18;;;;;;;13.13;9.65;;;12.40;52.90;;;;;;4993821;28;20286;-52
2021/03/19 09:15:44;;;;;;;;;;;12.80;54.70;;;;;;4995120;28;20103;-52
2021/03/19 09:18:38;;;;;;;7.32;4.05;;;12.70;49.00;;;;;;5015440;28;20338;-47
2021/03/19 09:21:38;;;;;;;45.53;40.58;;;13.20;49.40;;;;;;4990453;28;20156;-49
2021/03/19 09:24:24;;;;;;;6.25;3.35;;;13.30;48.10;;;;;;4992966;28;20069;-49
2021/03/19 09:27:31;;;;;;;5.32;3.72;;;12.90;51.50;;;;;;4991095;28;20050;-52
2021/03/19 09:30:20;;;;;;;8.40;4.72;;;12.40;48.00;;;;;;4993637;28;20449;-48
2021/03/19 09:33:12;;;;;;;4.28;2.58;;;12.40;50.40;;;;;;5006298;28;20507;-52
2021/03/19 09:35:58;;;;;;;6.95;4.10;;;12.80;49.40;;;;;;4994079;28;20092;-53
2021/03/19 09:38:47;;;;;;;5.93;3.75;;;13.00;49.70;;;;;;4993199;28;20053;-52
2021/03/19 09:41:49;;;;;;;6.45;3.50;;;13.40;48.00;;;;;;4985067;28;20068;-52
2021/03/19 09:44:29;;;;;;;4.43;2.55;;;13.20;45.20;;;;;;5007606;28;20050;-55
2021/03/19 09:47:22;;;;;;;4.65;2.60;;;13.30;43.90;;;;;;5006632;28;20552;-52
2021/03/19 09:50:16;;;;;;;4.22;2.13;;;13.50;46.60;;;;;;4992021;28;20049;-50
2021/03/19 09:53:06;;;;;;;4.63;2.47;;;13.80;45.30;;;;;;5006993;28;20140;-52
2021/03/19 09:55:58;;;;;;;6.18;2.75;;;14.20;42.90;;;;;;4993066;28;20054;-55
2021/03/19 09:58:45;;;;;;;5.75;1.80;;;14.10;44.30;;;;;;5007043;28;20100;-52
2021/03/19 10:01:35;;;;;;;4.72;2.58;;;14.30;43.00;;;;;;5007038;28;20116;-53
2021/03/19 10:04:04;;;;;;;4.70;2.80;;;14.60;42.00;;;;;;5007156;28;20050;-51
2021/03/19 10:06:50;;;;;;;4.28;2.13;;;14.10;44.00;;;;;;4993401;28;20494;-51
2021/03/19 10:09:26;;;;;;;3.63;1.92;;;14.10;43.30;;;;;;5006327;28;20057;-53
2021/03/19 10:12:22;;;;;;;4.65;1.88;;;14.00;42.50;;;;;;4981684;28;20061;-52
2021/03/19 10:15:15;;;;;;;4.32;2.20;;;14.00;43.90;;;;;;4992363;28;20108;-50
2021/03/19 10:18:04;;;;;;;3.65;2.03;;;14.10;43.40;;;;;;4992110;28;20564;-53
2021/03/19 10:20:58;;;;;;;3.95;1.75;;;14.60;43.40;;;;;;4992263;28;20053;-52
2021/03/19 10:23:46;;;;;;;4.47;1.70;;;14.70;40.80;;;;;;4992059;28;20053;-53
2021/03/19 10:26:48;;;;;;;3.65;1.70;;;14.80;42.00;;;;;;4991981;28;20124;-53
2021/03/19 10:29:21;;;;;;;4.75;2.00;;;14.80;41.50;;;;;;5007052;28;20199;-50
2021/03/19 10:31:54;;;;;;;2.72;1.50;;;15.00;40.60;;;;;;4988395;28;20053;-53
2021/03/19 10:34:59;;;;;;;3.33;1.95;;;15.60;42.00;;;;;;4992011;28;20225;-52
2021/03/19 10:37:54;;;;;;;4.88;1.73;;;15.30;40.60;;;;;;4992475;28;20054;-51
2021/03/19 10:40:44;;;;;;;3.97;1.40;;;15.70;40.10;;;;;;4960472;28;20054;-50
2021/03/19 10:43:17;;;;;;;17.88;15.32;;;15.60;40.70;;;;;;4994494;28;20048;-45
2021/03/19 10:46:02;;;;;;;10.52;5.50;;;16.20;40.80;;;;;;5007588;28;20053;-47
2021/03/19 10:48:50;;;;;;;8.63;4.78;;;16.60;39.40;;;;;;5006381;28;20073;-45
2021/03/19 10:51:42;;;;;;;15.63;11.10;;;17.10;38.80;;;;;;4988848;28;20053;-44
2021/03/19 10:54:25;;;;;;;14.20;7.88;;;17.10;38.80;;;;;;5004751;28;20065;-47
2021/03/19 10:57:22;;;;;;;4.72;3.47;;;17.00;36.90;;;;;;5005031;28;20065;-45
2021/03/19 10:59:51;;;;;;;3.30;2.35;;;16.90;35.70;;;;;;4986428;28;20498;-46
2021/03/19 11:02:19;;;;;;;4.70;2.03;;;17.20;38.80;;;;;;5005598;28;20054;-44
2021/03/19 11:04:55;;;;;;;3.28;1.73;;;17.00;37.00;;;;;;5002744;28;20489;-43
2021/03/19 11:07:27;;;;;;;3.33;1.83;;;17.00;37.10;;;;;;5002709;28;20050;-45
2021/03/19 11:09:59;;;;;;;4.93;3.25;;;17.50;37.90;;;;;;5002179;28;20093;-51
2021/03/19 11:12:35;;;;;;;20.85;17.38;;;17.90;36.50;;;;;;5000203;28;20061;-50
2021/03/19 11:15:04;;;;;;;7.55;4.72;;;18.40;36.40;;;;;;5005949;28;20446;-50
2021/03/19 11:17:33;;;;;;;19.00;16.90;;;18.60;37.30;;;;;;5002477;28;20050;-52
2021/03/19 11:20:08;;;;;;;6.10;3.47;;;17.40;37.40;;;;;;4988186;28;20119;-49
2021/03/19 11:22:40;;;;;;;14.15;11.75;;;16.30;38.40;;;;;;5006418;28;20058;-49
2021/03/19 11:25:49;;;;;;;4.13;2.70;;;14.80;40.30;;;;;;4990940;28;20042;-50
2021/03/19 11:28:42;;;;;;;13.45;11.50;;;14.60;43.40;;;;;;5005828;28;20100;-49
2021/03/19 11:31:14;;;;;;;3.45;1.77;;;14.90;43.00;;;;;;4932214;29;20694;-48
2021/03/19 11:33:59;;;;;;;6.38;5.15;;;15.30;42.60;;;;;;4936556;29;20595;-48
2021/03/19 11:36:47;;;;;;;3.97;2.35;;;15.50;41.70;;;;;;4939239;29;20500;-50
2021/03/19 11:39:23;;;;;;;7.20;3.75;;;15.90;42.00;;;;;;4940274;29;20476;-47
2021/03/19 11:41:49;;;;;;;6.88;3.90;;;15.60;41.20;;;;;;4936864;29;20508;-48
2021/03/19 11:44:17;;;;;;;4.85;3.17;;;15.20;40.50;;;;;;4936081;29;20039;-49
2021/03/19 11:46:43;;;;;;;5.25;2.42;;;15.50;41.40;;;;;;4935891;29;20520;-47
2021/03/19 11:49:14;;;;;;;16.90;13.20;;;15.80;40.10;;;;;;4937164;29;20055;-47
2021/03/19 11:51:42;;;;;;;16.15;13.68;;;15.30;40.40;;;;;;4940713;28;20152;-52
2021/03/19 11:54:10;;;;;;;9.13;7.60;;;14.90;42.20;;;;;;4928814;29;20059;-48
2021/03/19 11:56:38;;;;;;;8.48;6.63;;;14.60;42.10;;;;;;4934258;29;20047;-56
2021/03/19 11:59:23;;;;;;;7.18;4.13;;;14.70;42.20;;;;;;4921595;29;20047;-55
2021/03/19 12:01:49;;;;;;;3.92;2.03;;;14.40;42.60;;;;;;4931530;29;20055;-57
2021/03/19 12:04:20;;;;;;;2.53;1.48;;;14.10;42.40;;;;;;4930906;28;20052;-53
2021/03/19 12:06:51;;;;;;;4.05;1.98;;;14.30;43.40;;;;;;4936755;28;20182;-52
2021/03/19 12:09:19;;;;;;;9.15;6.43;;;14.20;43.30;;;;;;5001159;28;20137;-50
2021/03/19 12:11:45;;;;;;;5.55;2.33;;;15.10;42.90;;;;;;5004006;28;20046;-48
2021/03/19 12:14:24;;;;;;;5.38;2.88;;;15.90;40.60;;;;;;5005489;28;20561;-47
2021/03/19 12:16:53;;;;;;;5.28;2.25;;;16.10;39.60;;;;;;5003249;28;20421;-46
2021/03/19 12:19:19;;;;;;;4.72;1.58;;;15.50;40.40;;;;;;5001739;28;20047;-45
2021/03/19 12:21:48;;;;;;;3.25;1.80;;;14.50;40.00;;;;;;5014143;28;20100;-48
2021/03/19 12:24:40;;;;;;;5.43;1.80;;;13.70;41.50;;;;;;4989943;28;20077;-45
2021/03/19 12:27:10;;;;;;;3.08;1.23;;;13.00;43.70;;;;;;5004884;28;20061;-48
2021/03/19 12:29:59;;;;;;;2.03;0.90;;;12.60;44.50;;;;;;4983675;28;20517;-46
2021/03/19 12:32:27;;;;;;;2.67;1.33;;;12.90;44.70;;;;;;5004995;28;20046;-49
2021/03/19 12:34:55;;;;;;;3.17;1.27;;;12.60;44.10;;;;;;5004479;28;20053;-47
2021/03/19 12:37:26;;;;;;;2.60;1.13;;;12.70;44.40;;;;;;5005359;28;20053;-47
2021/03/19 12:40:18;;;;;;;2.70;0.80;;;12.80;44.10;;;;;;4990753;28;20782;-49
2021/03/19 12:42:44;;;;;;;2.15;0.93;;;12.80;42.90;;;;;;4998703;28;20054;-48
2021/03/19 12:45:34;;;;;;;1.27;0.82;;;12.80;43.60;;;;;;4993929;28;20127;-50
2021/03/19 12:48:20;;;;;;;3.70;0.90;;;12.70;43.70;;;;;;4990113;28;20049;-49
2021/03/19 12:50:51;;;;;;;4.53;1.45;;;12.40;44.20;;;;;;5007687;28;20490;-50
2021/03/19 12:53:40;;;;;;;1.88;0.90;;;12.50;44.20;;;;;;4990939;28;20438;-50
2021/03/19 12:56:30;;;;;;;1.67;0.63;;;13.00;42.90;;;;;;4990413;28;20057;-48
2021/03/19 12:59:18;;;;;;;2.95;1.73;;;13.70;41.50;;;;;;4989611;28;20053;-55
2021/03/19 13:01:44;;;;;;;7.53;2.22;;;14.20;42.40;;;;;;4984165;28;20053;-55
2021/03/19 13:04:30;;;;;;;1.65;1.10;;;14.20;41.60;;;;;;4989532;28;20085;-53
2021/03/19 13:07:16;;;;;;;1.42;0.75;;;13.80;41.30;;;;;;4992355;28;20100;-45
2021/03/19 13:09:42;;;;;;;14.77;8.57;;;13.50;42.50;;;;;;5003780;28;20060;-57
2021/03/19 13:12:09;;;;;;;4.40;1.98;;;13.70;42.40;;;;;;4983776;28;20053;-57
2021/03/19 13:14:55;;;;;;;12.52;9.85;;;14.10;42.00;;;;;;4983342;28;20046;-57
2021/03/19 13:17:21;;;;;;;3.53;2.67;;;14.50;39.70;;;;;;4999961;28;20050;-57
2021/03/19 13:19:53;;;;;;;11.95;9.18;;;14.10;39.80;;;;;;5003713;28;20487;-58
2021/03/19 13:22:39;;;;;;;5.78;2.45;;;13.80;40.50;;;;;;4989803;28;20137;-57
2021/03/19 13:25:08;;;;;;;6.07;3.00;;;15.00;39.60;;;;;;5003945;28;20046;-59
2021/03/19 13:27:55;;;;;;;4.70;3.60;;;16.00;36.60;;;;;;4991167;28;20478;-58
2021/03/19 13:30:23;;;;;;;6.78;4.05;;;17.30;36.10;;;;;;5007531;28;20422;-57
2021/03/19 13:32:51;;;;;;;10.70;7.93;;;17.50;34.50;;;;;;5007088;28;20052;-56
2021/03/19 13:35:23;;;;;;;0.43;0.25;;;17.90;34.00;;;;;;5010679;28;20050;-62
2021/03/19 13:37:49;;;;;;;4.85;3.17;;;17.40;33.60;;;;;;5006752;28;20053;-65
2021/03/19 13:40:41;;;;;;;4.78;3.35;;;17.50;34.00;;;;;;4974933;28;20574;-64
2021/03/19 13:43:08;;;;;;;6.50;4.57;;;17.00;34.90;;;;;;5006640;28;20049;-64
2021/03/19 13:45:34;;;;;;;4.75;3.35;;;17.60;34.30;;;;;;5008642;28;20522;-63
2021/03/19 13:48:00;;;;;;;4.72;2.50;;;17.70;33.70;;;;;;5007940;28;20137;-64
2021/03/19 13:50:27;;;;;;;14.25;7.78;;;17.70;33.60;;;;;;5007821;28;20474;-64
2021/03/19 13:52:54;;;;;;;7.07;3.80;;;17.60;33.00;;;;;;5007425;28;20499;-64
2021/03/19 13:55:21;;;;;;;2.45;1.45;;;15.50;34.40;;;;;;5009695;28;20155;-65
2021/03/19 13:57:53;;;;;;;2.70;1.52;;;14.40;36.30;;;;;;4981796;28;20089;-63
2021/03/19 14:00:37;;;;;;;2.22;1.10;;;13.80;38.70;;;;;;5007989;28;20491;-63
2021/03/19 14:03:08;;;;;;;3.63;2.40;;;14.80;38.30;;;;;;4989232;28;20474;-63
2021/03/19 14:05:37;;;;;;;2.53;1.33;;;14.50;37.00;;;;;;5002661;28;20045;-64
2021/03/19 14:08:06;;;;;;;1.95;0.98;;;13.10;37.70;;;;;;5008141;28;20050;-63
2021/03/19 14:10:32;;;;;;;3.65;1.45;;;12.40;40.00;;;;;;5011002;28;20128;-64
2021/03/19 14:12:59;;;;;;;3.72;1.58;;;12.00;41.80;;;;;;5008453;28;20048;-64
2021/03/19 14:15:27;;;;;;;2.13;0.70;;;11.80;41.50;;;;;;5009225;28;20064;-63
2021/03/19 14:17:53;;;;;;;2.17;0.80;;;11.80;42.10;;;;;;5011326;28;20049;-63
2021/03/19 14:20:30;;;;;;;5.70;3.85;;;11.30;42.90;;;;;;5010732;28;20136;-63
2021/03/19 14:22:56;;;;;;;8.35;3.35;;;12.10;43.70;;;;;;5006399;28;20115;-64
2021/03/19 14:25:23;;;;;;;6.43;4.53;;;13.80;41.30;;;;;;4991200;28;20041;-65
2021/03/19 14:27:50;;;;;;;8.15;3.92;;;14.80;38.20;;;;;;5004304;28;20050;-63
2021/03/19 14:30:20;;;;;;;11.13;9.15;;;15.50;37.40;;;;;;5013566;28;20050;-65
2021/03/19 14:32:48;;;;;;;13.00;10.15;;;16.40;35.20;;;;;;5005355;28;20065;-63
2021/03/19 14:35:19;;;;;;;6.30;2.85;;;15.70;35.10;;;;;;5007036;28;20731;-62
2021/03/19 14:37:45;;;;;;;5.32;3.53;;;16.10;35.10;;;;;;5007092;28;20042;-63
2021/03/19 14:40:17;;;;;;;20.20;16.45;;;16.30;34.70;;;;;;5010648;28;20454;-48